createdAt,value
2023-02-11T00:02:14.148Z,21.13
2023-02-11T00:04:42.124Z,20.40
2023-02-11T00:07:09.741Z,17.97
2023-02-11T00:09:38.505Z,21.73
2023-02-11T00:12:08.448Z,20.77
2023-02-11T00:14:36.059Z,22.53
2023-02-11T00:17:03.912Z,21.67
2023-02-11T00:19:33.862Z,22.47
2023-02-11T00:22:01.552Z,21.37
2023-02-11T00:24:30.082Z,21.20
2023-02-11T00:26:57.706Z,20.97
2023-02-11T00:29:27.814Z,21.40
2023-02-11T00:31:55.817Z,21.47
2023-02-11T00:34:23.499Z,22.50
2023-02-11T00:36:52.444Z,22.77
2023-02-11T00:39:20.046Z,24.53
2023-02-11T00:41:47.667Z,22.13
2023-02-11T00:44:15.365Z,22.77
2023-02-11T00:46:43.183Z,20.87
2023-02-11T00:49:11.312Z,21.40
2023-02-11T00:51:39.096Z,21.87
2023-02-11T00:54:08.819Z,23.83
2023-02-11T00:56:36.944Z,27.97
2023-02-11T00:59:04.732Z,23.97
2023-02-11T01:01:32.366Z,25.97
2023-02-11T01:04:00.570Z,24.07
2023-02-11T01:06:28.217Z,23.30
2023-02-11T01:08:55.814Z,21.70
2023-02-11T01:11:24.910Z,22.60
2023-02-11T01:13:52.672Z,25.83
2023-02-11T01:16:21.692Z,25.27
2023-02-11T01:18:49.698Z,22.17
2023-02-11T01:21:17.752Z,27.87
2023-02-11T01:23:45.491Z,23.23
2023-02-11T01:26:13.201Z,25.47
2023-02-11T01:28:43.257Z,24.87
2023-02-11T01:31:11.268Z,24.67
2023-02-11T01:33:39.007Z,21.10
2023-02-11T01:36:07.774Z,25.37
2023-02-11T01:38:36.309Z,17.13
2023-02-11T01:41:06.215Z,25.37
2023-02-11T01:43:37.041Z,14.63
2023-02-11T01:46:25.591Z,18.67
2023-02-11T01:48:58.658Z,17.13
2023-02-11T01:51:32.503Z,22.73
2023-02-11T01:54:19.347Z,20.77
2023-02-11T01:57:10.376Z,18.30
2023-02-11T01:59:43.315Z,22.63
2023-02-11T02:02:16.806Z,23.10
2023-02-11T02:04:53.166Z,23.10
2023-02-11T02:07:29.350Z,26.13
2023-02-11T02:10:01.330Z,26.73
2023-02-11T02:12:29.023Z,20.57
2023-02-11T02:15:19.958Z,23.20
2023-02-11T02:18:00.299Z,21.93
2023-02-11T02:20:53.699Z,21.93
2023-02-11T02:23:33.292Z,26.60
2023-02-11T02:26:35.018Z,20.13
2023-02-11T02:29:20.574Z,24.47
2023-02-11T02:32:14.825Z,23.47
2023-02-11T02:34:52.756Z,25.77
2023-02-11T02:37:28.216Z,24.30
2023-02-11T02:39:57.967Z,27.17
2023-02-11T02:42:26.100Z,27.10
2023-02-11T02:44:56.368Z,21.73
2023-02-11T02:47:24.130Z,24.20
2023-02-11T02:49:53.097Z,26.17
2023-02-11T02:52:35.849Z,25.47
2023-02-11T02:55:11.566Z,18.60
2023-02-11T02:57:50.782Z,23.67
2023-02-11T03:00:28.345Z,23.10
2023-02-11T03:03:15.872Z,26.53
2023-02-11T03:05:51.415Z,20.37
2023-02-11T03:08:29.878Z,24.57
2023-02-11T03:10:58.660Z,23.30
2023-02-11T03:13:34.929Z,23.60
2023-02-11T03:16:08.061Z,24.10
2023-02-11T03:18:39.168Z,25.53
2023-02-11T03:21:12.028Z,22.07
2023-02-11T03:23:45.561Z,23.80
2023-02-11T03:26:17.086Z,22.67
2023-02-11T03:28:52.510Z,22.70
2023-02-11T03:31:28.176Z,19.27
2023-02-11T03:34:00.453Z,18.93
2023-02-11T03:36:36.890Z,21.90
2023-02-11T03:39:07.256Z,20.73
2023-02-11T03:41:36.480Z,20.30
2023-02-11T03:44:07.094Z,18.07
2023-02-11T03:46:39.998Z,18.73
2023-02-11T03:49:13.052Z,17.97
2023-02-11T03:51:42.249Z,21.70
2023-02-11T03:54:14.449Z,21.97
2023-02-11T03:56:47.787Z,19.23
2023-02-11T03:59:16.731Z,20.90
2023-02-11T04:01:44.538Z,20.73
2023-02-11T04:04:12.300Z,21.50
2023-02-11T04:06:40.204Z,23.40
2023-02-11T04:09:09.245Z,23.93
2023-02-11T04:11:37.098Z,21.23
2023-02-11T04:14:05.062Z,22.23
2023-02-11T04:16:32.718Z,20.93
2023-02-11T04:19:01.500Z,24.00
2023-02-11T04:21:29.261Z,22.10
2023-02-11T04:23:56.928Z,20.97
2023-02-11T04:26:26.102Z,20.63
2023-02-11T04:28:53.704Z,24.90
2023-02-11T04:31:22.550Z,22.63
2023-02-11T04:33:50.291Z,21.33
2023-02-11T04:36:17.956Z,22.47
2023-02-11T04:38:45.888Z,21.80
2023-02-11T04:41:13.528Z,20.43
2023-02-11T04:43:42.612Z,19.90
2023-02-11T04:46:11.157Z,21.40
2023-02-11T04:48:38.891Z,21.60
2023-02-11T04:51:09.323Z,21.37
2023-02-11T04:53:39.126Z,21.37
2023-02-11T04:56:07.118Z,18.30
2023-02-11T04:58:34.751Z,21.77
2023-02-11T05:01:08.117Z,21.43
2023-02-11T05:03:37.781Z,22.67
2023-02-11T05:06:08.277Z,18.70
2023-02-11T05:08:35.925Z,21.33
2023-02-11T05:11:03.800Z,20.92
2023-02-11T05:13:32.266Z,22.77
2023-02-11T05:15:59.973Z,19.60
2023-02-11T05:18:29.110Z,20.30
2023-02-11T05:20:57.367Z,20.75
2023-02-11T05:23:25.005Z,20.57
2023-02-11T05:25:52.855Z,20.10
2023-02-11T05:28:20.651Z,20.00
2023-02-11T05:30:48.319Z,18.17
2023-02-11T05:33:18.403Z,18.57
2023-02-11T05:35:47.403Z,18.30
2023-02-11T05:38:17.719Z,21.10
2023-02-11T05:40:45.405Z,20.93
2023-02-11T05:43:13.314Z,20.03
2023-02-11T05:45:41.189Z,21.20
2023-02-11T05:48:11.169Z,19.83
2023-02-11T05:50:38.807Z,21.23
2023-02-11T05:53:08.723Z,21.77
2023-02-11T05:55:36.681Z,19.00
2023-02-11T05:58:04.889Z,21.67
2023-02-11T06:00:32.548Z,20.73
2023-02-11T06:03:00.422Z,19.57
2023-02-11T06:05:28.690Z,22.30
2023-02-11T06:07:56.453Z,19.17
2023-02-11T06:10:25.418Z,19.10
2023-02-11T06:12:55.129Z,17.10
2023-02-11T06:15:22.893Z,16.77
2023-02-11T06:17:50.534Z,20.63
2023-02-11T06:20:18.240Z,20.37
2023-02-11T06:22:46.902Z,16.20
2023-02-11T06:25:15.683Z,19.93
2023-02-11T06:27:44.969Z,20.97
2023-02-11T06:30:13.425Z,21.80
2023-02-11T06:32:45.468Z,20.75
2023-02-11T06:35:14.392Z,19.77
2023-02-11T06:37:42.598Z,18.33
2023-02-11T06:40:11.376Z,19.37
2023-02-11T06:42:39.533Z,20.33
2023-02-11T06:45:10.818Z,20.10
2023-02-11T06:47:38.483Z,19.63
2023-02-11T06:50:08.030Z,17.43
2023-02-11T06:52:35.750Z,20.42
2023-02-11T06:55:03.545Z,20.55
2023-02-11T06:57:31.739Z,19.87
2023-02-11T06:59:59.404Z,19.67
2023-02-11T07:02:28.369Z,15.30
2023-02-11T07:04:56.084Z,17.47
2023-02-11T07:07:24.121Z,17.23
2023-02-11T07:09:52.046Z,18.90
2023-02-11T07:12:19.935Z,19.27
2023-02-11T07:14:47.568Z,19.60
2023-02-11T07:17:15.475Z,19.90
2023-02-11T07:19:44.504Z,21.23
2023-02-11T07:22:12.452Z,19.03
2023-02-11T07:24:40.485Z,18.73
2023-02-11T07:27:08.217Z,19.03
2023-02-11T07:29:38.099Z,18.17
2023-02-11T07:32:06.602Z,19.13
2023-02-11T07:34:35.420Z,17.93
2023-02-11T07:37:04.698Z,19.80
2023-02-11T07:39:32.630Z,20.00
2023-02-11T07:42:02.449Z,19.27
2023-02-11T07:44:30.387Z,16.40
2023-02-11T07:46:58.206Z,17.17
2023-02-11T07:49:25.986Z,19.80
2023-02-11T07:51:53.731Z,17.73
2023-02-11T07:54:23.299Z,16.73
2023-02-11T07:56:53.103Z,18.50
2023-02-11T07:59:21.991Z,19.42
2023-02-11T08:01:51.413Z,19.27
2023-02-11T08:04:19.272Z,18.07
2023-02-11T08:06:46.957Z,17.33
2023-02-11T08:09:17.547Z,16.70
2023-02-11T08:11:46.538Z,18.63
2023-02-11T08:14:14.205Z,17.33
2023-02-11T08:16:42.684Z,16.13
2023-02-11T08:19:13.563Z,18.10
2023-02-11T08:21:41.843Z,17.20
2023-02-11T08:24:09.594Z,17.70
2023-02-11T08:26:37.644Z,18.20
2023-02-11T08:29:10.994Z,17.70
2023-02-11T08:31:41.352Z,16.20
2023-02-11T08:34:10.663Z,14.73
2023-02-11T08:36:40.069Z,16.73
2023-02-11T08:39:19.191Z,18.23
2023-02-11T08:41:48.666Z,17.17
2023-02-11T08:44:17.833Z,18.20
2023-02-11T08:46:45.559Z,17.83
2023-02-11T08:49:13.287Z,18.00
2023-02-11T08:51:41.090Z,17.90
2023-02-11T08:54:09.813Z,16.63
2023-02-11T08:56:38.184Z,17.40
2023-02-11T08:59:06.289Z,18.13
2023-02-11T09:01:36.460Z,17.17
2023-02-11T09:04:04.263Z,20.43
2023-02-11T09:06:33.057Z,19.90
2023-02-11T09:09:00.824Z,20.93
2023-02-11T09:11:31.551Z,20.60
2023-02-11T09:14:00.387Z,18.57
2023-02-11T09:16:30.274Z,18.30
2023-02-11T09:19:00.782Z,18.47
2023-02-11T09:21:29.640Z,16.67
2023-02-11T09:23:57.737Z,19.70
2023-02-11T09:26:27.867Z,18.25
2023-02-11T09:28:57.589Z,17.73
2023-02-11T09:31:28.126Z,19.93
2023-02-11T09:33:58.125Z,17.10
2023-02-11T09:36:30.323Z,16.43
2023-02-11T09:39:00.172Z,16.30
2023-02-11T09:41:42.321Z,16.80
2023-02-11T09:44:19.354Z,16.73
2023-02-11T09:46:54.428Z,18.77
2023-02-11T09:49:28.271Z,15.90
2023-02-11T09:52:03.871Z,17.63
2023-02-11T09:54:38.640Z,14.15
2023-02-11T09:57:10.535Z,18.67
2023-02-11T09:59:42.258Z,17.17
2023-02-11T10:02:18.066Z,16.85
2023-02-11T10:05:00.263Z,17.20
2023-02-11T10:07:38.698Z,15.00
2023-02-11T10:10:16.553Z,16.77
2023-02-11T10:13:03.851Z,23.38
2023-02-11T10:15:44.150Z,17.90
2023-02-11T10:18:32.012Z,15.93
2023-02-11T10:21:13.929Z,15.52
2023-02-11T10:23:47.885Z,19.45
2023-02-11T10:26:19.751Z,17.35
2023-02-11T10:28:55.328Z,19.13
2023-02-11T10:31:28.369Z,16.55
2023-02-11T10:34:01.327Z,18.90
2023-02-11T10:36:35.520Z,19.35
2023-02-11T10:39:17.048Z,17.73
2023-02-11T10:41:49.188Z,16.98
2023-02-11T10:44:28.582Z,17.93
2023-02-11T10:47:01.461Z,16.80
2023-02-11T10:49:40.164Z,18.30
2023-02-11T10:52:25.445Z,17.98
2023-02-11T10:55:04.080Z,17.25
2023-02-11T10:57:35.886Z,18.92
2023-02-11T11:00:20.919Z,17.48
2023-02-11T11:02:56.604Z,18.50
2023-02-11T11:05:30.844Z,17.88
2023-02-11T11:08:00.390Z,17.48
2023-02-11T11:10:43.161Z,18.25
2023-02-11T11:13:28.836Z,17.30
2023-02-11T11:16:24.339Z,18.90
2023-02-11T11:18:54.457Z,17.17
2023-02-11T11:21:26.827Z,18.47
2023-02-11T11:23:59.960Z,15.50
2023-02-11T11:26:40.610Z,19.05
2023-02-11T11:29:14.456Z,16.97
2023-02-11T11:31:49.579Z,16.57
2023-02-11T11:34:24.033Z,18.20
2023-02-11T11:36:51.910Z,17.17
2023-02-11T11:39:23.227Z,18.48
2023-02-11T11:41:59.543Z,18.25
2023-02-11T11:44:30.918Z,18.13
2023-02-11T11:47:18.421Z,17.38
2023-02-11T11:49:51.912Z,19.20
2023-02-11T11:52:27.856Z,18.95
2023-02-11T11:55:01.843Z,18.10
2023-02-11T11:57:32.567Z,17.50
2023-02-11T12:00:00.195Z,17.55
2023-02-11T12:02:58.244Z,18.58
2023-02-11T12:05:28.882Z,18.13
2023-02-11T12:08:09.379Z,17.17
2023-02-11T12:10:49.773Z,16.33
2023-02-11T12:13:31.488Z,19.02
2023-02-11T12:16:09.954Z,17.00
2023-02-11T12:18:52.392Z,15.60
2023-02-11T12:21:30.438Z,17.90
2023-02-11T12:24:17.583Z,15.85
2023-02-11T12:26:48.845Z,15.57
2023-02-11T12:29:28.338Z,16.65
2023-02-11T12:32:08.538Z,17.23
2023-02-11T12:34:47.217Z,19.10
2023-02-11T12:37:33.136Z,19.17
2023-02-11T12:40:10.893Z,17.42
2023-02-11T12:43:08.595Z,16.65
2023-02-11T12:45:50.448Z,17.08
2023-02-11T12:48:35.905Z,20.10
2023-02-11T12:51:12.909Z,16.20
2023-02-11T12:54:00.124Z,15.48
2023-02-11T12:56:36.877Z,15.18
2023-02-11T12:59:08.987Z,15.90
2023-02-11T13:01:41.655Z,15.32
2023-02-11T13:04:16.823Z,15.90
2023-02-11T13:06:47.697Z,16.60
2023-02-11T13:09:21.914Z,18.10
2023-02-11T13:11:52.715Z,15.15
2023-02-11T13:14:27.737Z,16.13
2023-02-11T13:16:58.413Z,15.60
2023-02-11T13:19:34.201Z,14.65
2023-02-11T13:22:09.262Z,17.98
2023-02-11T13:24:44.680Z,14.80
2023-02-11T13:27:25.748Z,15.45
2023-02-11T13:30:24.115Z,13.77
2023-02-11T13:33:18.194Z,16.25
2023-02-11T13:35:51.068Z,14.50
2023-02-11T13:38:22.392Z,14.77
2023-02-11T13:41:03.894Z,14.15
2023-02-11T13:43:33.659Z,14.60
2023-02-11T13:46:03.651Z,12.80
2023-02-11T13:48:36.712Z,13.13
2023-02-11T13:51:07.598Z,14.73
2023-02-11T13:53:47.505Z,14.10
2023-02-11T13:56:30.565Z,17.98
2023-02-11T13:59:02.169Z,15.90
2023-02-11T14:01:41.707Z,13.75
2023-02-11T14:04:53.478Z,12.35
2023-02-11T14:07:47.613Z,12.65
2023-02-11T14:10:50.840Z,12.65
2023-02-11T14:13:24.381Z,11.55
2023-02-11T14:16:04.969Z,14.77
2023-02-11T14:19:00.766Z,11.57
2023-02-11T14:21:36.382Z,13.43
2023-02-11T14:24:46.261Z,10.93
2023-02-11T14:27:21.234Z,12.57
2023-02-11T14:30:02.487Z,12.38
2023-02-11T14:32:42.856Z,12.48
2023-02-11T14:35:18.203Z,11.70
2023-02-11T14:37:54.372Z,12.52
2023-02-11T14:40:30.261Z,13.23
2023-02-11T14:43:02.733Z,14.75
2023-02-11T14:45:31.484Z,13.30
2023-02-11T14:48:04.174Z,14.20
2023-02-11T14:50:39.788Z,13.32
2023-02-11T14:53:15.744Z,13.20
2023-02-11T14:55:46.605Z,14.10
2023-02-11T14:58:17.812Z,13.00
2023-02-11T15:00:58.383Z,13.95
2023-02-11T15:03:37.380Z,15.00
2023-02-11T15:06:08.794Z,15.50
2023-02-11T15:08:42.982Z,15.05
2023-02-11T15:11:14.522Z,13.93
2023-02-11T15:13:47.359Z,13.38
2023-02-11T15:16:18.435Z,13.50
2023-02-11T15:18:50.068Z,13.85
2023-02-11T15:21:22.705Z,14.70
2023-02-11T15:24:01.786Z,13.48
2023-02-11T15:26:29.982Z,13.32
2023-02-11T15:28:57.700Z,13.52
2023-02-11T15:31:27.265Z,13.57
2023-02-11T15:33:55.451Z,13.57
2023-02-11T15:36:28.497Z,16.63
2023-02-11T15:39:31.357Z,15.90
2023-02-11T15:42:17.420Z,13.07
2023-02-11T15:44:45.394Z,13.57
2023-02-11T15:47:14.629Z,14.75
2023-02-11T15:49:46.145Z,14.13
2023-02-11T15:52:15.281Z,14.60
2023-02-11T15:54:47.351Z,14.45
2023-02-11T15:57:16.319Z,14.63
2023-02-11T15:59:48.172Z,15.35
2023-02-11T16:02:18.728Z,15.48
2023-02-11T16:04:52.149Z,16.50
2023-02-11T16:07:39.815Z,16.52
2023-02-11T16:10:23.460Z,15.50
2023-02-11T16:12:58.028Z,15.60
2023-02-11T16:15:34.059Z,16.38
2023-02-11T16:18:03.457Z,16.10
2023-02-11T16:20:31.691Z,16.30
2023-02-11T16:22:59.571Z,16.92
2023-02-11T16:25:28.642Z,16.95
2023-02-11T16:27:56.470Z,16.95
2023-02-11T16:30:30.512Z,15.90
2023-02-11T16:32:58.410Z,15.85
2023-02-11T16:35:26.528Z,14.60
2023-02-11T16:37:54.826Z,17.05
2023-02-11T16:40:26.082Z,14.40
2023-02-11T16:42:55.861Z,16.95
2023-02-11T16:45:23.985Z,18.05
2023-02-11T16:47:51.854Z,15.68
2023-02-11T16:50:25.572Z,15.63
2023-02-11T16:52:53.409Z,15.02
2023-02-11T16:55:22.274Z,15.32
2023-02-11T16:57:50.997Z,16.60
2023-02-11T17:00:23.447Z,16.67
2023-02-11T17:02:51.170Z,15.95
2023-02-11T17:05:22.839Z,17.60
2023-02-11T17:07:50.731Z,15.95
2023-02-11T17:10:20.278Z,17.80
2023-02-11T17:12:48.716Z,14.48
2023-02-11T17:15:16.561Z,15.77
2023-02-11T17:17:45.803Z,14.80
2023-02-11T17:20:15.238Z,15.98
2023-02-11T17:22:45.272Z,16.42
2023-02-11T17:25:13.391Z,14.23
2023-02-11T17:27:41.587Z,14.75
2023-02-11T17:30:10.366Z,14.15
2023-02-11T17:32:38.202Z,15.18
2023-02-11T17:35:08.049Z,15.20
2023-02-11T17:37:35.735Z,15.43
2023-02-11T17:40:03.334Z,14.30
2023-02-11T17:42:31.227Z,13.95
2023-02-11T17:44:58.883Z,16.92
2023-02-11T17:47:26.849Z,13.40
2023-02-11T17:49:54.570Z,15.55
2023-02-11T17:52:24.191Z,15.05
2023-02-11T17:54:51.947Z,16.98
2023-02-11T17:57:22.316Z,16.85
2023-02-11T17:59:50.269Z,18.20
2023-02-11T18:02:18.534Z,15.80
2023-02-11T18:04:46.738Z,14.38
2023-02-11T18:07:14.504Z,14.05
2023-02-11T18:09:44.801Z,16.25
2023-02-11T18:12:12.494Z,16.10
2023-02-11T18:14:44.546Z,15.70
2023-02-11T18:17:12.603Z,16.63
2023-02-11T18:19:40.664Z,18.05
2023-02-11T18:22:09.629Z,15.50
2023-02-11T18:24:37.298Z,16.83
2023-02-11T18:27:08.740Z,15.77
2023-02-11T18:29:36.866Z,16.75
2023-02-11T18:32:04.813Z,14.98
2023-02-11T18:34:32.952Z,16.50
2023-02-11T18:37:01.014Z,13.70
2023-02-11T18:39:30.488Z,14.32
2023-02-11T18:41:58.864Z,14.45
2023-02-11T18:44:28.322Z,12.80
2023-02-11T18:46:57.184Z,13.65
2023-02-11T18:49:24.908Z,13.57
2023-02-11T18:51:53.170Z,14.27
2023-02-11T18:54:23.793Z,12.85
2023-02-11T18:56:51.730Z,12.65
2023-02-11T18:59:20.182Z,13.05
2023-02-11T19:01:49.387Z,12.73
2023-02-11T19:04:20.253Z,10.80
2023-02-11T19:06:49.644Z,12.50
2023-02-11T19:09:19.702Z,13.75
2023-02-11T19:11:54.124Z,15.32
2023-02-11T19:14:23.910Z,15.23
2023-02-11T19:16:55.618Z,14.65
2023-02-11T19:19:28.760Z,13.68
2023-02-11T19:21:57.382Z,15.90
2023-02-11T19:24:25.522Z,17.42
2023-02-11T19:26:56.934Z,17.00
2023-02-11T19:29:25.656Z,14.63
2023-02-11T19:31:57.681Z,14.50
2023-02-11T19:34:28.216Z,14.77
2023-02-11T19:36:59.560Z,14.48
2023-02-11T19:39:28.733Z,11.80
2023-02-11T19:41:57.502Z,10.95
2023-02-11T19:44:27.182Z,11.90
2023-02-11T19:46:57.445Z,12.85
2023-02-11T19:49:32.062Z,13.68
2023-02-11T19:52:02.596Z,13.75
2023-02-11T19:54:33.866Z,13.48
2023-02-11T19:57:03.049Z,13.05
2023-02-11T19:59:32.796Z,14.18
2023-02-11T20:02:01.437Z,14.07
2023-02-11T20:04:38.054Z,13.02
2023-02-11T20:07:06.022Z,13.55
2023-02-11T20:09:33.913Z,14.23
2023-02-11T20:12:01.894Z,14.05
2023-02-11T20:14:31.461Z,13.52
2023-02-11T20:16:59.587Z,14.32
2023-02-11T20:19:38.169Z,12.10
2023-02-11T20:22:07.808Z,13.70
2023-02-11T20:24:38.460Z,13.70
2023-02-11T20:27:08.292Z,12.93
2023-02-11T20:29:36.652Z,12.45
2023-02-11T20:32:05.207Z,13.35
2023-02-11T20:34:35.940Z,11.85
2023-02-11T20:37:06.072Z,12.18
2023-02-11T20:39:37.190Z,12.48
2023-02-11T20:42:06.442Z,12.88
2023-02-11T20:44:36.898Z,12.63
2023-02-11T20:47:07.494Z,14.80
2023-02-11T20:49:35.741Z,14.70
2023-02-11T20:52:08.221Z,13.07
2023-02-11T20:54:40.753Z,13.20
2023-02-11T20:57:11.175Z,12.90
2023-02-11T20:59:41.101Z,12.70
2023-02-11T21:02:12.412Z,12.50
2023-02-11T21:04:40.787Z,12.98
2023-02-11T21:07:08.582Z,13.98
2023-02-11T21:09:36.318Z,13.73
2023-02-11T21:12:06.644Z,11.65
2023-02-11T21:14:34.641Z,12.02
2023-02-11T21:17:02.416Z,10.73
2023-02-11T21:19:30.169Z,10.90
2023-02-11T21:22:00.748Z,12.95
2023-02-11T21:24:30.710Z,11.35
2023-02-11T21:26:59.839Z,10.10
2023-02-11T21:29:30.504Z,10.65
2023-02-11T21:31:59.105Z,10.98
2023-02-11T21:34:26.835Z,9.50
2023-02-11T21:36:54.587Z,9.40
2023-02-11T21:39:23.957Z,10.13
2023-02-11T21:41:52.151Z,8.35
2023-02-11T21:44:20.084Z,9.07
2023-02-11T21:46:51.815Z,9.60
2023-02-11T21:49:20.163Z,8.57
2023-02-11T21:51:47.994Z,9.63
2023-02-11T21:54:15.849Z,8.43
2023-02-11T21:56:48.477Z,8.40
2023-02-11T21:59:18.121Z,8.90
2023-02-11T22:01:47.068Z,9.23
2023-02-11T22:04:17.028Z,7.30
2023-02-11T22:06:45.217Z,8.75
2023-02-11T22:09:12.900Z,8.50
2023-02-11T22:11:40.753Z,8.38
2023-02-11T22:14:08.856Z,8.38
2023-02-11T22:16:37.289Z,9.85
2023-02-11T22:19:07.333Z,10.02
2023-02-11T22:21:39.750Z,10.23
2023-02-11T22:24:07.978Z,10.10
2023-02-11T22:26:38.424Z,8.98
2023-02-11T22:29:08.799Z,9.25
2023-02-11T22:31:38.984Z,9.63
2023-02-11T22:34:07.137Z,10.05
2023-02-11T22:36:37.517Z,10.45
2023-02-11T22:39:10.331Z,13.00
2023-02-11T22:41:39.246Z,11.57
2023-02-11T22:44:10.444Z,10.38
2023-02-11T22:46:40.263Z,9.23
2023-02-11T22:49:09.822Z,10.25
2023-02-11T22:51:37.663Z,9.77
2023-02-11T22:54:11.353Z,9.57
2023-02-11T22:56:39.054Z,8.35
2023-02-11T22:59:08.975Z,8.80
